sensor_id;sensor_type;location;lat;lon;timestamp;pressure;altitude;pressure_sealevel;temperature;humidity
40838;BME280;29632;49.168;9.848;2023-03-08T00:01:00;95374.25;;;7.92;41.32
40838;BME280;29632;49.168;9.848;2023-03-08T00:03:26;95376.53;;;7.95;40.89
40838;BME280;29632;49.168;9.848;2023-03-08T00:05:52;95377.31;;;7.96;41.36
40838;BME280;29632;49.168;9.848;2023-03-08T00:08:17;95387.06;;;7.93;40.75
40838;BME280;29632;49.168;9.848;2023-03-08T00:10:43;95377.47;;;7.94;40.88
40838;BME280;29632;49.168;9.848;2023-03-08T00:13:10;95379.91;;;7.96;40.78
40838;BME280;29632;49.168;9.848;2023-03-08T00:15:36;95379.13;;;7.95;40.85
40838;BME280;29632;49.168;9.848;2023-03-08T00:18:03;95382.81;;;7.92;40.79
40838;BME280;29632;49.168;9.848;2023-03-08T00:20:29;95385.91;;;7.96;40.87
40838;BME280;29632;49.168;9.848;2023-03-08T00:22:55;95380.88;;;7.94;41.25
40838;BME280;29632;49.168;9.848;2023-03-08T00:25:20;95376.69;;;7.93;40.86
40838;BME280;29632;49.168;9.848;2023-03-08T00:27:46;95385.41;;;7.92;40.81
40838;BME280;29632;49.168;9.848;2023-03-08T00:30:12;95378.94;;;7.97;40.57
40838;BME280;29632;49.168;9.848;2023-03-08T00:32:38;95382.84;;;8.01;41.07
40838;BME280;29632;49.168;9.848;2023-03-08T00:35:04;95384.59;;;8.00;41.41
40838;BME280;29632;49.168;9.848;2023-03-08T00:37:29;95383.16;;;7.98;41.11
40838;BME280;29632;49.168;9.848;2023-03-08T00:39:55;95377.47;;;7.94;40.66
40838;BME280;29632;49.168;9.848;2023-03-08T00:42:21;95380.22;;;7.92;41.16
40838;BME280;29632;49.168;9.848;2023-03-08T00:44:46;95381.19;;;7.91;40.78
40838;BME280;29632;49.168;9.848;2023-03-08T00:47:12;95376.19;;;7.90;40.19
40838;BME280;29632;49.168;9.848;2023-03-08T00:49:38;95386.72;;;7.88;41.28
40838;BME280;29632;49.168;9.848;2023-03-08T00:52:04;95376.50;;;7.87;40.93
40838;BME280;29632;49.168;9.848;2023-03-08T00:54:30;95378.59;;;7.91;40.78
40838;BME280;29632;49.168;9.848;2023-03-08T00:56:56;95373.59;;;7.98;40.62
40838;BME280;29632;49.168;9.848;2023-03-08T00:59:22;95374.06;;;8.02;40.35
40838;BME280;29632;49.168;9.848;2023-03-08T01:01:47;95370.69;;;8.01;40.83
40838;BME280;29632;49.168;9.848;2023-03-08T01:04:13;95373.28;;;8.01;40.64
40838;BME280;29632;49.168;9.848;2023-03-08T01:06:39;95365.66;;;8.00;40.89
40838;BME280;29632;49.168;9.848;2023-03-08T01:09:05;95370.69;;;8.01;40.55
40838;BME280;29632;49.168;9.848;2023-03-08T01:11:31;95366.44;;;8.00;40.71
40838;BME280;29632;49.168;9.848;2023-03-08T01:13:59;95365.81;;;7.98;40.87
40838;BME280;29632;49.168;9.848;2023-03-08T01:16:28;95362.25;;;7.99;41.52
40838;BME280;29632;49.168;9.848;2023-03-08T01:18:55;95347.19;;;7.94;40.85
40838;BME280;29632;49.168;9.848;2023-03-08T01:21:21;95356.41;;;7.89;40.97
40838;BME280;29632;49.168;9.848;2023-03-08T01:23:47;95352.69;;;7.83;40.67
40838;BME280;29632;49.168;9.848;2023-03-08T01:26:14;95351.56;;;7.78;41.30
40838;BME280;29632;49.168;9.848;2023-03-08T01:28:41;95347.00;;;7.71;41.16
40838;BME280;29632;49.168;9.848;2023-03-08T01:33:36;95349.28;;;7.66;41.41
40838;BME280;29632;49.168;9.848;2023-03-08T01:36:06;95341.50;;;7.66;41.46
40838;BME280;29632;49.168;9.848;2023-03-08T01:38:32;95331.94;;;7.67;40.88
40838;BME280;29632;49.168;9.848;2023-03-08T01:40:59;95338.91;;;7.66;40.95
40838;BME280;29632;49.168;9.848;2023-03-08T01:49:04;95331.94;;;7.50;40.96
40838;BME280;29632;49.168;9.848;2023-03-08T01:54:12;95340.66;;;7.49;40.88
40838;BME280;29632;49.168;9.848;2023-03-08T01:56:38;95335.63;;;7.48;40.72
40838;BME280;29632;49.168;9.848;2023-03-08T01:59:05;95327.88;;;7.48;41.08
40838;BME280;29632;49.168;9.848;2023-03-08T02:01:32;95324.13;;;7.42;41.00
40838;BME280;29632;49.168;9.848;2023-03-08T02:03:58;95321.88;;;7.39;41.20
40838;BME280;29632;49.168;9.848;2023-03-08T02:06:24;95313.94;;;7.41;40.90
40838;BME280;29632;49.168;9.848;2023-03-08T02:08:50;95309.59;;;7.41;40.90
40838;BME280;29632;49.168;9.848;2023-03-08T02:11:16;95311.69;;;7.37;40.90
40838;BME280;29632;49.168;9.848;2023-03-08T02:13:43;95305.69;;;7.37;41.21
40838;BME280;29632;49.168;9.848;2023-03-08T02:16:10;95312.81;;;7.35;41.39
40838;BME280;29632;49.168;9.848;2023-03-08T02:18:48;95314.59;;;7.34;40.74
40838;BME280;29632;49.168;9.848;2023-03-08T02:21:14;95315.56;;;7.33;40.56
40838;BME280;29632;49.168;9.848;2023-03-08T02:23:39;95320.88;;;7.32;41.36
40838;BME280;29632;49.168;9.848;2023-03-08T02:26:05;95315.22;;;7.28;40.73
40838;BME280;29632;49.168;9.848;2023-03-08T02:28:31;95310.03;;;7.28;41.31
40838;BME280;29632;49.168;9.848;2023-03-08T02:30:57;95307.59;;;7.27;40.75
40838;BME280;29632;49.168;9.848;2023-03-08T02:33:22;95302.91;;;7.22;40.67
40838;BME280;29632;49.168;9.848;2023-03-08T02:35:48;95293.81;;;7.18;41.37
40838;BME280;29632;49.168;9.848;2023-03-08T02:38:16;95298.22;;;7.17;41.21
40838;BME280;29632;49.168;9.848;2023-03-08T02:40:42;95283.97;;;7.13;40.60
40838;BME280;29632;49.168;9.848;2023-03-08T02:43:08;95284.28;;;7.10;40.93
40838;BME280;29632;49.168;9.848;2023-03-08T02:45:34;95285.72;;;7.13;41.11
40838;BME280;29632;49.168;9.848;2023-03-08T02:48:03;95297.22;;;7.10;41.15
40838;BME280;29632;49.168;9.848;2023-03-08T02:50:30;95281.03;;;7.08;41.26
40838;BME280;29632;49.168;9.848;2023-03-08T02:52:56;95281.19;;;7.07;41.30
40838;BME280;29632;49.168;9.848;2023-03-08T02:55:22;95276.31;;;7.04;41.48
40838;BME280;29632;49.168;9.848;2023-03-08T02:57:48;95270.34;;;7.03;41.23
40838;BME280;29632;49.168;9.848;2023-03-08T03:00:13;95267.59;;;7.05;41.15
40838;BME280;29632;49.168;9.848;2023-03-08T03:02:39;95265.66;;;7.07;41.60
40838;BME280;29632;49.168;9.848;2023-03-08T03:05:06;95270.03;;;7.06;40.57
40838;BME280;29632;49.168;9.848;2023-03-08T03:07:36;95259.34;;;7.01;40.96
40838;BME280;29632;49.168;9.848;2023-03-08T03:10:07;95252.19;;;6.95;41.16
40838;BME280;29632;49.168;9.848;2023-03-08T03:12:33;95249.13;;;6.91;41.02
40838;BME280;29632;49.168;9.848;2023-03-08T03:15:00;95248.31;;;6.91;41.53
40838;BME280;29632;49.168;9.848;2023-03-08T03:17:27;95257.88;;;6.90;41.14
40838;BME280;29632;49.168;9.848;2023-03-08T03:19:52;95246.84;;;6.88;41.30
40838;BME280;29632;49.168;9.848;2023-03-08T03:22:18;95253.50;;;6.91;41.35
40838;BME280;29632;49.168;9.848;2023-03-08T03:24:44;95249.78;;;6.93;41.28
40838;BME280;29632;49.168;9.848;2023-03-08T03:27:09;95240.56;;;6.91;41.42
40838;BME280;29632;49.168;9.848;2023-03-08T03:29:36;95238.44;;;6.86;40.69
40838;BME280;29632;49.168;9.848;2023-03-08T03:32:02;95235.16;;;6.76;40.83
40838;BME280;29632;49.168;9.848;2023-03-08T03:34:28;95242.78;;;6.69;41.19
40838;BME280;29632;49.168;9.848;2023-03-08T03:36:54;95241.28;;;6.67;41.32
40838;BME280;29632;49.168;9.848;2023-03-08T03:39:20;95245.03;;;6.64;41.43
40838;BME280;29632;49.168;9.848;2023-03-08T03:41:45;95246.78;;;6.64;41.66
40838;BME280;29632;49.168;9.848;2023-03-08T03:44:11;95241.59;;;6.64;41.32
40838;BME280;29632;49.168;9.848;2023-03-08T03:46:37;95233.69;;;6.65;41.50
40838;BME280;29632;49.168;9.848;2023-03-08T03:49:03;95237.75;;;6.68;41.07
40838;BME280;29632;49.168;9.848;2023-03-08T03:51:28;95229.84;;;6.69;40.92
40838;BME280;29632;49.168;9.848;2023-03-08T03:53:54;95229.84;;;6.69;41.57
40838;BME280;29632;49.168;9.848;2023-03-08T03:56:22;95219.66;;;6.68;41.13
40838;BME280;29632;49.168;9.848;2023-03-08T03:58:48;95219.50;;;6.69;41.13
40838;BME280;29632;49.168;9.848;2023-03-08T04:01:15;95224.66;;;6.69;40.91
40838;BME280;29632;49.168;9.848;2023-03-08T04:03:41;95211.72;;;6.69;40.89
40838;BME280;29632;49.168;9.848;2023-03-08T04:06:09;95208.97;;;6.71;40.82
40838;BME280;29632;49.168;9.848;2023-03-08T04:08:36;95213.81;;;6.74;41.31
40838;BME280;29632;49.168;9.848;2023-03-08T04:11:18;95209.78;;;6.79;41.09
40838;BME280;29632;49.168;9.848;2023-03-08T04:13:44;95203.34;;;6.84;40.94
40838;BME280;29632;49.168;9.848;2023-03-08T04:16:14;95197.03;;;6.86;41.42
40838;BME280;29632;49.168;9.848;2023-03-08T04:18:40;95204.78;;;6.86;41.04
40838;BME280;29632;49.168;9.848;2023-03-08T04:21:06;95199.63;;;6.86;41.26
40838;BME280;29632;49.168;9.848;2023-03-08T04:23:32;95186.69;;;6.86;40.84
40838;BME280;29632;49.168;9.848;2023-03-08T04:25:59;95185.56;;;6.89;41.04
40838;BME280;29632;49.168;9.848;2023-03-08T04:28:24;95182.31;;;6.95;41.01
40838;BME280;29632;49.168;9.848;2023-03-08T04:30:50;95185.25;;;7.00;40.80
40838;BME280;29632;49.168;9.848;2023-03-08T04:33:16;95178.13;;;7.02;41.06
40838;BME280;29632;49.168;9.848;2023-03-08T04:35:41;95172.63;;;7.05;40.60
40838;BME280;29632;49.168;9.848;2023-03-08T04:38:07;95165.34;;;7.09;40.87
40838;BME280;29632;49.168;9.848;2023-03-08T04:40:32;95161.44;;;7.13;40.98
40838;BME280;29632;49.168;9.848;2023-03-08T04:43:18;95171.97;;;7.19;40.75
40838;BME280;29632;49.168;9.848;2023-03-08T04:45:44;95161.94;;;7.25;40.53
40838;BME280;29632;49.168;9.848;2023-03-08T04:48:09;95154.34;;;7.31;40.50
40838;BME280;29632;49.168;9.848;2023-03-08T04:50:35;95157.41;;;7.35;40.87
40838;BME280;29632;49.168;9.848;2023-03-08T04:53:00;95157.25;;;7.36;40.36
40838;BME280;29632;49.168;9.848;2023-03-08T04:55:26;95172.63;;;7.38;40.59
40838;BME280;29632;49.168;9.848;2023-03-08T04:57:52;95176.66;;;7.41;40.76
40838;BME280;29632;49.168;9.848;2023-03-08T05:00:17;95168.41;;;7.45;40.94
40838;BME280;29632;49.168;9.848;2023-03-08T05:02:43;95162.06;;;7.48;40.36
40838;BME280;29632;49.168;9.848;2023-03-08T05:05:09;95167.56;;;7.53;40.60
40838;BME280;29632;49.168;9.848;2023-03-08T05:07:34;95163.69;;;7.57;40.50
40838;BME280;29632;49.168;9.848;2023-03-08T05:10:00;95164.34;;;7.59;40.64
40838;BME280;29632;49.168;9.848;2023-03-08T05:12:25;95159.97;;;7.60;40.45
40838;BME280;29632;49.168;9.848;2023-03-08T05:14:51;95149.44;;;7.61;40.51
40838;BME280;29632;49.168;9.848;2023-03-08T05:17:17;95147.47;;;7.63;40.02
40838;BME280;29632;49.168;9.848;2023-03-08T05:19:42;95145.88;;;7.62;40.19
40838;BME280;29632;49.168;9.848;2023-03-08T05:22:08;95150.59;;;7.59;40.26
40838;BME280;29632;49.168;9.848;2023-03-08T05:24:33;95156.72;;;7.57;40.08
40838;BME280;29632;49.168;9.848;2023-03-08T05:26:59;95160.28;;;7.56;40.45
40838;BME280;29632;49.168;9.848;2023-03-08T05:29:25;95155.75;;;7.59;40.23
40838;BME280;29632;49.168;9.848;2023-03-08T05:31:50;95152.50;;;7.56;40.79
40838;BME280;29632;49.168;9.848;2023-03-08T05:34:16;95145.88;;;7.54;40.57
40838;BME280;29632;49.168;9.848;2023-03-08T05:36:42;95140.69;;;7.54;40.33
40838;BME280;29632;49.168;9.848;2023-03-08T05:39:08;95141.34;;;7.56;40.06
40838;BME280;29632;49.168;9.848;2023-03-08T05:41:34;95137.78;;;7.57;40.58
40838;BME280;29632;49.168;9.848;2023-03-08T05:44:00;95125.63;;;7.57;40.30
40838;BME280;29632;49.168;9.848;2023-03-08T05:46:26;95123.53;;;7.61;40.31
40838;BME280;29632;49.168;9.848;2023-03-08T05:48:52;95127.38;;;7.65;40.11
40838;BME280;29632;49.168;9.848;2023-03-08T05:51:18;95129.50;;;7.70;40.22
40838;BME280;29632;49.168;9.848;2023-03-08T05:53:45;95132.72;;;7.72;40.35
40838;BME280;29632;49.168;9.848;2023-03-08T05:56:19;95127.38;;;7.73;39.87
40838;BME280;29632;49.168;9.848;2023-03-08T05:58:44;95133.03;;;7.77;39.94
40838;BME280;29632;49.168;9.848;2023-03-08T06:01:12;95125.25;;;7.77;40.37
40838;BME280;29632;49.168;9.848;2023-03-08T06:03:39;95130.91;;;7.81;40.06
40838;BME280;29632;49.168;9.848;2023-03-08T06:06:04;95143.22;;;7.79;40.16
40838;BME280;29632;49.168;9.848;2023-03-08T06:08:30;95135.31;;;7.72;40.28
40838;BME280;29632;49.168;9.848;2023-03-08T06:10:56;95140.03;;;7.68;40.23
40838;BME280;29632;49.168;9.848;2023-03-08T06:13:21;95144.88;;;7.71;40.41
40838;BME280;29632;49.168;9.848;2023-03-08T06:15:47;95141.13;;;7.74;40.48
40838;BME280;29632;49.168;9.848;2023-03-08T06:18:13;95131.59;;;7.74;40.27
40838;BME280;29632;49.168;9.848;2023-03-08T06:20:38;95122.34;;;7.72;40.53
40838;BME280;29632;49.168;9.848;2023-03-08T06:23:04;95126.91;;;7.70;40.51
40838;BME280;29632;49.168;9.848;2023-03-08T06:25:29;95124.16;;;7.71;40.75
40838;BME280;29632;49.168;9.848;2023-03-08T06:27:55;95134.34;;;7.73;40.63
40838;BME280;29632;49.168;9.848;2023-03-08T06:30:21;95132.88;;;7.70;40.52
40838;BME280;29632;49.168;9.848;2023-03-08T06:32:46;95126.09;;;7.69;40.71
40838;BME280;29632;49.168;9.848;2023-03-08T06:35:12;95126.25;;;7.68;40.41
40838;BME280;29632;49.168;9.848;2023-03-08T06:37:37;95111.50;;;7.68;40.75
40838;BME280;29632;49.168;9.848;2023-03-08T06:40:03;95107.78;;;7.71;40.44
40838;BME280;29632;49.168;9.848;2023-03-08T06:42:30;95108.75;;;7.78;40.83
40838;BME280;29632;49.168;9.848;2023-03-08T06:44:56;95100.44;;;7.83;40.21
40838;BME280;29632;49.168;9.848;2023-03-08T06:47:22;95089.41;;;7.89;40.25
40838;BME280;29632;49.168;9.848;2023-03-08T06:49:47;95086.16;;;7.95;39.90
40838;BME280;29632;49.168;9.848;2023-03-08T06:52:13;95078.50;;;8.02;40.42
40838;BME280;29632;49.168;9.848;2023-03-08T06:54:38;95070.56;;;8.03;39.92
40838;BME280;29632;49.168;9.848;2023-03-08T06:57:04;95078.16;;;8.05;40.38
40838;BME280;29632;49.168;9.848;2023-03-08T06:59:30;95066.66;;;8.07;40.52
40838;BME280;29632;49.168;9.848;2023-03-08T07:01:55;95061.13;;;8.10;39.75
40838;BME280;29632;49.168;9.848;2023-03-08T07:04:21;95059.50;;;8.09;40.07
40838;BME280;29632;49.168;9.848;2023-03-08T07:06:46;95052.88;;;8.07;40.71
40838;BME280;29632;49.168;9.848;2023-03-08T07:09:12;95060.66;;;8.07;40.24
40838;BME280;29632;49.168;9.848;2023-03-08T07:11:38;95051.75;;;8.09;40.43
40838;BME280;29632;49.168;9.848;2023-03-08T07:14:04;95052.19;;;8.13;40.59
40838;BME280;29632;49.168;9.848;2023-03-08T07:16:30;95058.66;;;8.17;40.58
40838;BME280;29632;49.168;9.848;2023-03-08T07:18:55;95062.53;;;8.21;39.87
40838;BME280;29632;49.168;9.848;2023-03-08T07:21:22;95058.31;;;8.20;39.91
40838;BME280;29632;49.168;9.848;2023-03-08T07:23:51;95048.63;;;8.14;40.21
40838;BME280;29632;49.168;9.848;2023-03-08T07:26:17;95049.47;;;8.06;40.06
40838;BME280;29632;49.168;9.848;2023-03-08T07:28:43;95053.41;;;8.02;40.59
40838;BME280;29632;49.168;9.848;2023-03-08T07:31:09;95070.09;;;8.00;40.83
40838;BME280;29632;49.168;9.848;2023-03-08T07:33:36;95070.88;;;8.00;40.72
40838;BME280;29632;49.168;9.848;2023-03-08T07:36:02;95063.47;;;7.97;41.06
40838;BME280;29632;49.168;9.848;2023-03-08T07:38:28;95063.97;;;7.92;40.25
40838;BME280;29632;49.168;9.848;2023-03-08T07:40:54;95052.50;;;7.87;40.57
40838;BME280;29632;49.168;9.848;2023-03-08T07:43:20;95053.47;;;7.86;40.89
40838;BME280;29632;49.168;9.848;2023-03-08T07:45:46;95050.22;;;7.84;40.87
40838;BME280;29632;49.168;9.848;2023-03-08T07:48:12;95048.59;;;7.83;41.26
40838;BME280;29632;49.168;9.848;2023-03-08T07:50:37;95054.31;;;7.78;41.03
40838;BME280;29632;49.168;9.848;2023-03-08T07:53:03;95049.16;;;7.70;40.64
40838;BME280;29632;49.168;9.848;2023-03-08T07:55:29;95059.22;;;7.65;40.57
40838;BME280;29632;49.168;9.848;2023-03-08T07:57:55;95047.59;;;7.61;41.01
40838;BME280;29632;49.168;9.848;2023-03-08T08:00:21;95040.94;;;7.58;40.69
40838;BME280;29632;49.168;9.848;2023-03-08T08:02:46;95048.06;;;7.56;40.81
40838;BME280;29632;49.168;9.848;2023-03-08T08:05:13;95041.94;;;7.49;41.48
40838;BME280;29632;49.168;9.848;2023-03-08T08:07:38;95034.19;;;7.41;41.17
40838;BME280;29632;49.168;9.848;2023-03-08T08:10:05;95035.03;;;7.33;41.89
40838;BME280;29632;49.168;9.848;2023-03-08T08:12:31;95026.97;;;7.28;41.66
40838;BME280;29632;49.168;9.848;2023-03-08T08:14:57;95023.25;;;7.22;42.02
40838;BME280;29632;49.168;9.848;2023-03-08T08:17:24;95011.44;;;7.19;41.78
40838;BME280;29632;49.168;9.848;2023-03-08T08:19:50;95007.41;;;7.25;42.05
40838;BME280;29632;49.168;9.848;2023-03-08T08:22:15;94991.34;;;7.30;41.43
40838;BME280;29632;49.168;9.848;2023-03-08T08:24:41;94990.06;;;7.34;41.59
40838;BME280;29632;49.168;9.848;2023-03-08T08:27:07;94982.56;;;7.39;41.26
40838;BME280;29632;49.168;9.848;2023-03-08T08:29:32;94987.09;;;7.45;41.33
40838;BME280;29632;49.168;9.848;2023-03-08T08:31:58;94987.56;;;7.49;41.02
40838;BME280;29632;49.168;9.848;2023-03-08T08:34:24;94985.09;;;7.55;41.63
40838;BME280;29632;49.168;9.848;2023-03-08T08:36:49;94983.44;;;7.63;41.13
40838;BME280;29632;49.168;9.848;2023-03-08T08:39:15;94969.16;;;7.67;41.30
40838;BME280;29632;49.168;9.848;2023-03-08T08:41:41;94956.66;;;7.70;41.57
40838;BME280;29632;49.168;9.848;2023-03-08T08:44:06;94944.19;;;7.74;41.51
40838;BME280;29632;49.168;9.848;2023-03-08T08:46:32;94938.66;;;7.77;41.66
40838;BME280;29632;49.168;9.848;2023-03-08T08:49:00;94928.13;;;7.79;41.56
40838;BME280;29632;49.168;9.848;2023-03-08T08:51:26;94923.75;;;7.79;41.00
40838;BME280;29632;49.168;9.848;2023-03-08T08:53:52;94911.78;;;7.78;41.73
40838;BME280;29632;49.168;9.848;2023-03-08T08:56:20;94911.78;;;7.78;41.22
40838;BME280;29632;49.168;9.848;2023-03-08T08:58:46;94895.22;;;7.79;41.12
40838;BME280;29632;49.168;9.848;2023-03-08T09:01:14;94896.06;;;7.80;41.64
40838;BME280;29632;49.168;9.848;2023-03-08T09:03:40;94883.91;;;7.80;41.13
40838;BME280;29632;49.168;9.848;2023-03-08T09:06:06;94884.53;;;7.82;41.43
40838;BME280;29632;49.168;9.848;2023-03-08T09:08:31;94871.56;;;7.82;41.82
40838;BME280;29632;49.168;9.848;2023-03-08T09:11:01;94867.19;;;7.83;41.64
40838;BME280;29632;49.168;9.848;2023-03-08T09:13:28;94848.88;;;7.84;41.57
40838;BME280;29632;49.168;9.848;2023-03-08T09:15:54;94834.31;;;7.83;41.33
40838;BME280;29632;49.168;9.848;2023-03-08T09:18:20;94837.25;;;7.80;41.63
40838;BME280;29632;49.168;9.848;2023-03-08T09:20:45;94835.44;;;7.81;42.17
40838;BME280;29632;49.168;9.848;2023-03-08T09:23:11;94835.81;;;7.78;42.00
40838;BME280;29632;49.168;9.848;2023-03-08T09:25:37;94841.81;;;7.78;42.12
40838;BME280;29632;49.168;9.848;2023-03-08T09:28:02;94841.47;;;7.81;42.04
40838;BME280;29632;49.168;9.848;2023-03-08T09:30:28;94840.47;;;7.82;41.99
40838;BME280;29632;49.168;9.848;2023-03-08T09:32:55;94837.06;;;7.82;42.03
40838;BME280;29632;49.168;9.848;2023-03-08T09:35:20;94836.09;;;7.83;42.31
40838;BME280;29632;49.168;9.848;2023-03-08T09:37:46;94829.75;;;7.85;41.69
40838;BME280;29632;49.168;9.848;2023-03-08T09:40:20;94824.41;;;7.87;41.97
40838;BME280;29632;49.168;9.848;2023-03-08T09:42:47;94819.06;;;7.88;41.65
40838;BME280;29632;49.168;9.848;2023-03-08T09:45:17;94808.50;;;7.90;41.93
40838;BME280;29632;49.168;9.848;2023-03-08T09:52:48;94803.13;;;7.91;42.05
40838;BME280;29632;49.168;9.848;2023-03-08T09:55:28;94796.19;;;7.92;42.55
40838;BME280;29632;49.168;9.848;2023-03-08T09:58:45;94791.00;;;7.92;41.90
40838;BME280;29632;49.168;9.848;2023-03-08T10:00:52;94788.56;;;7.90;42.41
40838;BME280;29632;49.168;9.848;2023-03-08T10:03:40;94794.38;;;7.92;41.78
40838;BME280;29632;49.168;9.848;2023-03-08T10:08:40;94776.84;;;7.94;42.49
40838;BME280;29632;49.168;9.848;2023-03-08T10:14:11;94766.59;;;8.01;42.16
40838;BME280;29632;49.168;9.848;2023-03-08T10:16:43;94768.22;;;8.02;42.14
40838;BME280;29632;49.168;9.848;2023-03-08T10:19:20;94756.06;;;8.03;41.57
40838;BME280;29632;49.168;9.848;2023-03-08T10:21:48;94748.09;;;8.04;41.99
40838;BME280;29632;49.168;9.848;2023-03-08T10:24:17;94749.69;;;8.05;41.98
40838;BME280;29632;49.168;9.848;2023-03-08T10:26:51;94743.38;;;8.08;42.27
40838;BME280;29632;49.168;9.848;2023-03-08T10:29:17;94733.25;;;8.13;42.65
40838;BME280;29632;49.168;9.848;2023-03-08T10:31:43;94737.28;;;8.16;42.01
40838;BME280;29632;49.168;9.848;2023-03-08T10:34:18;94726.56;;;8.19;42.32
40838;BME280;29632;49.168;9.848;2023-03-08T10:37:02;94719.41;;;8.21;42.21
40838;BME280;29632;49.168;9.848;2023-03-08T10:39:28;94716.00;;;8.20;42.22
40838;BME280;29632;49.168;9.848;2023-03-08T10:41:57;94714.03;;;8.22;42.28
40838;BME280;29632;49.168;9.848;2023-03-08T10:44:37;94717.25;;;8.24;42.04
40838;BME280;29632;49.168;9.848;2023-03-08T10:49:44;94707.97;;;8.30;42.13
40838;BME280;29632;49.168;9.848;2023-03-08T10:52:22;94708.59;;;8.32;42.13
40838;BME280;29632;49.168;9.848;2023-03-08T10:54:59;94706.78;;;8.32;42.82
40838;BME280;29632;49.168;9.848;2023-03-08T10:57:25;94705.16;;;8.31;42.55
40838;BME280;29632;49.168;9.848;2023-03-08T10:59:51;94700.19;;;8.30;42.12
40838;BME280;29632;49.168;9.848;2023-03-08T11:02:18;94695.16;;;8.28;43.05
40838;BME280;29632;49.168;9.848;2023-03-08T11:04:58;94703.31;;;8.25;42.12
40838;BME280;29632;49.168;9.848;2023-03-08T11:07:29;94692.66;;;8.20;42.25
40838;BME280;29632;49.168;9.848;2023-03-08T11:12:36;94691.44;;;8.16;42.91
40838;BME280;29632;49.168;9.848;2023-03-08T11:15:15;94697.75;;;8.13;42.90
40838;BME280;29632;49.168;9.848;2023-03-08T11:17:54;94690.97;;;8.12;42.68
40838;BME280;29632;49.168;9.848;2023-03-08T11:20:39;94693.56;;;8.12;42.58
40838;BME280;29632;49.168;9.848;2023-03-08T11:23:27;94690.97;;;8.12;42.44
40838;BME280;29632;49.168;9.848;2023-03-08T11:26:17;94685.78;;;8.12;42.84
40838;BME280;29632;49.168;9.848;2023-03-08T11:37:03;94676.00;;;8.29;43.41
40838;BME280;29632;49.168;9.848;2023-03-08T11:39:50;94670.72;;;8.38;43.24
40838;BME280;29632;49.168;9.848;2023-03-08T11:51:02;94665.91;;;8.49;43.67
40838;BME280;29632;49.168;9.848;2023-03-08T11:56:34;94660.25;;;8.61;43.72
40838;BME280;29632;49.168;9.848;2023-03-08T11:59:20;94647.53;;;8.66;43.75
40838;BME280;29632;49.168;9.848;2023-03-08T12:02:03;94645.19;;;8.71;43.30
40838;BME280;29632;49.168;9.848;2023-03-08T12:07:09;94645.94;;;8.86;43.57
40838;BME280;29632;49.168;9.848;2023-03-08T12:12:30;94639.25;;;8.99;43.58
40838;BME280;29632;49.168;9.848;2023-03-08T12:17:52;94631.00;;;9.17;43.39
40838;BME280;29632;49.168;9.848;2023-03-08T12:20:18;94632.06;;;9.22;43.67
40838;BME280;29632;49.168;9.848;2023-03-08T12:28:11;94633.06;;;9.50;43.96
40838;BME280;29632;49.168;9.848;2023-03-08T12:33:12;94631.97;;;9.66;43.93
40838;BME280;29632;49.168;9.848;2023-03-08T12:40:52;94626.69;;;9.87;43.67
40838;BME280;29632;49.168;9.848;2023-03-08T12:45:58;94625.97;;;10.00;43.79
40838;BME280;29632;49.168;9.848;2023-03-08T12:58:49;94625.28;;;10.26;44.39
40838;BME280;29632;49.168;9.848;2023-03-08T13:03:56;94616.53;;;10.41;44.23
40838;BME280;29632;49.168;9.848;2023-03-08T13:08:59;94620.41;;;10.58;44.44
40838;BME280;29632;49.168;9.848;2023-03-08T13:11:36;94617.81;;;10.65;44.54
40838;BME280;29632;49.168;9.848;2023-03-08T13:14:02;94627.44;;;10.71;44.39
40838;BME280;29632;49.168;9.848;2023-03-08T13:19:28;94619.28;;;10.87;44.52
40838;BME280;29632;49.168;9.848;2023-03-08T13:22:01;94608.03;;;10.93;44.63
40838;BME280;29632;49.168;9.848;2023-03-08T13:24:46;94612.28;;;11.01;44.57
40838;BME280;29632;49.168;9.848;2023-03-08T13:29:58;94610.28;;;11.17;44.88
40838;BME280;29632;49.168;9.848;2023-03-08T13:32:25;94613.69;;;11.24;45.08
40838;BME280;29632;49.168;9.848;2023-03-08T13:35:02;94622.09;;;11.32;44.96
40838;BME280;29632;49.168;9.848;2023-03-08T13:37:29;94618.28;;;11.42;44.76
40838;BME280;29632;49.168;9.848;2023-03-08T13:39:57;94619.88;;;11.49;44.88
40838;BME280;29632;49.168;9.848;2023-03-08T13:42:24;94618.88;;;11.57;44.84
40838;BME280;29632;49.168;9.848;2023-03-08T13:44:51;94610.81;;;11.65;44.94
40838;BME280;29632;49.168;9.848;2023-03-08T13:47:24;94620.06;;;11.75;44.82
40838;BME280;29632;49.168;9.848;2023-03-08T13:49:51;94621.03;;;11.80;45.00
40838;BME280;29632;49.168;9.848;2023-03-08T13:52:23;94620.22;;;11.86;45.01
40838;BME280;29632;49.168;9.848;2023-03-08T13:54:53;94618.03;;;11.90;44.85
40838;BME280;29632;49.168;9.848;2023-03-08T13:57:30;94617.22;;;11.96;45.14
40838;BME280;29632;49.168;9.848;2023-03-08T13:59:59;94620.41;;;12.05;45.13
40838;BME280;29632;49.168;9.848;2023-03-08T14:02:27;94616.16;;;12.11;45.15
40838;BME280;29632;49.168;9.848;2023-03-08T14:04:54;94616.34;;;12.16;45.32
40838;BME280;29632;49.168;9.848;2023-03-08T14:07:23;94620.56;;;12.23;45.36
40838;BME280;29632;49.168;9.848;2023-03-08T14:09:51;94606.25;;;12.33;44.85
40838;BME280;29632;49.168;9.848;2023-03-08T14:12:19;94610.41;;;12.40;44.87
40838;BME280;29632;49.168;9.848;2023-03-08T14:14:49;94600.75;;;12.47;45.07
40838;BME280;29632;49.168;9.848;2023-03-08T14:17:21;94609.75;;;12.58;44.73
40838;BME280;29632;49.168;9.848;2023-03-08T14:19:55;94599.84;;;12.67;45.10
40838;BME280;29632;49.168;9.848;2023-03-08T14:22:23;94582.34;;;12.74;45.08
40838;BME280;29632;49.168;9.848;2023-03-08T14:24:58;94587.16;;;12.77;45.12
40838;BME280;29632;49.168;9.848;2023-03-08T14:27:41;94590.34;;;12.79;45.19
40838;BME280;29632;49.168;9.848;2023-03-08T14:30:21;94589.31;;;12.80;45.31
40838;BME280;29632;49.168;9.848;2023-03-08T14:35:38;94587.06;;;12.84;45.32
40838;BME280;29632;49.168;9.848;2023-03-08T14:38:34;94598.94;;;12.87;45.17
40838;BME280;29632;49.168;9.848;2023-03-08T14:41:03;94591.88;;;12.87;45.46
40838;BME280;29632;49.168;9.848;2023-03-08T14:43:30;94608.16;;;12.89;45.32
40838;BME280;29632;49.168;9.848;2023-03-08T14:46:02;94603.75;;;12.90;45.58
40838;BME280;29632;49.168;9.848;2023-03-08T14:48:30;94616.19;;;12.88;45.49